createdAt,value
2022-07-29T00:02:25.773Z,94859.31
2022-07-29T00:04:52.662Z,94856.66
2022-07-29T00:07:19.356Z,94850.59
2022-07-29T00:09:51.110Z,94844.88
2022-07-29T00:12:25.138Z,94836.47
2022-07-29T00:14:53.957Z,94839.94
2022-07-29T00:17:20.696Z,94834.72
2022-07-29T00:19:47.403Z,94829.84
2022-07-29T00:22:14.075Z,94830.88
2022-07-29T00:24:40.744Z,94835.09
2022-07-29T00:27:08.782Z,94821.25
2022-07-29T00:29:35.725Z,94827.13
2022-07-29T00:32:02.970Z,94823.34
2022-07-29T00:34:48.355Z,94828.53
2022-07-29T00:37:15.033Z,94823.28
2022-07-29T00:39:41.770Z,94816.09
2022-07-29T00:42:10.687Z,94812.44
2022-07-29T00:44:39.011Z,94806.88
2022-07-29T00:47:06.224Z,94812.06
2022-07-29T00:49:33.680Z,94804.91
2022-07-29T00:52:01.924Z,94814.88
2022-07-29T00:54:30.036Z,94811.72
2022-07-29T00:56:58.790Z,94805.97
2022-07-29T00:59:34.792Z,94794.13
2022-07-29T01:02:03.176Z,94792.63
2022-07-29T01:04:30.788Z,94792.28
2022-07-29T01:06:57.983Z,94785.00
2022-07-29T01:09:35.001Z,94790.38
2022-07-29T01:12:16.104Z,94791.97
2022-07-29T01:14:44.550Z,94786.72
2022-07-29T01:17:14.988Z,94788.44
2022-07-29T01:19:51.824Z,94778.78
2022-07-29T01:22:36.865Z,94780.53
2022-07-29T01:25:13.692Z,94775.19
2022-07-29T01:27:52.511Z,94774.59
2022-07-29T01:30:23.964Z,94765.34
2022-07-29T01:32:55.712Z,94760.84
2022-07-29T01:35:26.208Z,94753.94
2022-07-29T01:37:58.574Z,94754.25
2022-07-29T01:40:30.116Z,94743.22
2022-07-29T01:42:59.013Z,94751.47
2022-07-29T01:45:31.759Z,94749.28
2022-07-29T01:48:04.305Z,94742.66
2022-07-29T01:50:35.983Z,94738.09
2022-07-29T01:53:06.032Z,94734.16
2022-07-29T01:55:36.472Z,94729.44
2022-07-29T01:58:05.659Z,94728.78
2022-07-29T02:00:35.305Z,94729.75
2022-07-29T02:03:06.989Z,94722.59
2022-07-29T02:05:36.497Z,94721.50
2022-07-29T02:08:05.346Z,94716.44
2022-07-29T02:10:33.545Z,94705.09
2022-07-29T02:13:03.223Z,94708.13
2022-07-29T02:15:33.939Z,94704.47
2022-07-29T02:18:04.491Z,94710.63
2022-07-29T02:20:32.236Z,94711.41
2022-07-29T02:23:00.848Z,94690.44
2022-07-29T02:25:36.915Z,94687.44
2022-07-29T02:28:06.274Z,94690.53
2022-07-29T02:30:37.434Z,94694.19
2022-07-29T02:33:05.427Z,94680.47
2022-07-29T02:35:34.856Z,94682.69
2022-07-29T02:38:21.694Z,94686.94
2022-07-29T02:40:51.145Z,94684.72
2022-07-29T02:43:19.553Z,94684.88
2022-07-29T02:45:52.160Z,94679.19
2022-07-29T02:48:23.479Z,94682.19
2022-07-29T02:50:54.288Z,94681.91
2022-07-29T02:53:24.754Z,94682.38
2022-07-29T02:55:57.243Z,94678.59
2022-07-29T02:58:29.473Z,94682.19
2022-07-29T03:00:59.476Z,94680.47
2022-07-29T03:03:29.398Z,94682.03
2022-07-29T03:05:57.751Z,94674.63
2022-07-29T03:08:25.772Z,94676.53
2022-07-29T03:10:53.128Z,94679.03
2022-07-29T03:13:20.403Z,94684.88
2022-07-29T03:15:48.275Z,94672.72
2022-07-29T03:18:16.597Z,94673.66
2022-07-29T03:20:43.573Z,94675.22
2022-07-29T03:23:10.470Z,94672.38
2022-07-29T03:25:37.454Z,94673.50
2022-07-29T03:28:04.346Z,94681.09
2022-07-29T03:30:31.710Z,94679.03
2022-07-29T03:32:58.936Z,94681.38
2022-07-29T03:35:26.963Z,94675.72
2022-07-29T03:37:53.670Z,94671.47
2022-07-29T03:40:24.055Z,94672.38
2022-07-29T03:42:52.773Z,94669.72
2022-07-29T03:45:20.557Z,94677.44
2022-07-29T03:47:51.107Z,94679.53
2022-07-29T03:50:21.233Z,94672.56
2022-07-29T03:52:50.183Z,94676.19
2022-07-29T03:55:17.331Z,94672.56
2022-07-29T03:57:47.183Z,94665.94
2022-07-29T04:00:16.397Z,94666.09
2022-07-29T04:02:49.070Z,94671.81
2022-07-29T04:05:16.626Z,94666.28
2022-07-29T04:07:44.822Z,94669.31
2022-07-29T04:10:12.947Z,94670.09
2022-07-29T04:12:39.619Z,94676.56
2022-07-29T04:15:07.445Z,94681.94
2022-07-29T04:17:34.244Z,94683.50
2022-07-29T04:20:00.902Z,94686.66
2022-07-29T04:22:27.592Z,94688.69
2022-07-29T04:24:54.240Z,94698.31
2022-07-29T04:27:22.223Z,94695.78
2022-07-29T04:29:56.744Z,94693.41
2022-07-29T04:32:24.755Z,94698.00
2022-07-29T04:34:51.930Z,94696.88
2022-07-29T04:37:18.593Z,94707.28
2022-07-29T04:39:45.247Z,94703.03
2022-07-29T04:42:11.967Z,94707.94
2022-07-29T04:44:42.859Z,94708.56
2022-07-29T04:47:10.049Z,94702.41
2022-07-29T04:49:38.934Z,94706.03
2022-07-29T04:52:06.413Z,94708.38
2022-07-29T04:54:33.982Z,94709.50
2022-07-29T04:57:00.628Z,94706.81
2022-07-29T04:59:33.304Z,94710.63
2022-07-29T05:02:01.411Z,94713.31
2022-07-29T05:04:28.109Z,94718.34
2022-07-29T05:06:54.804Z,94715.19
2022-07-29T05:09:21.444Z,94709.81
2022-07-29T05:11:48.123Z,94710.28
2022-07-29T05:14:15.200Z,94712.16
2022-07-29T05:16:42.951Z,94717.03
2022-07-29T05:19:14.157Z,94714.97
2022-07-29T05:21:41.706Z,94714.19
2022-07-29T05:24:08.997Z,94718.13
2022-07-29T05:26:35.627Z,94721.28
2022-07-29T05:29:02.611Z,94715.91
2022-07-29T05:31:29.342Z,94719.69
2022-07-29T05:33:56.145Z,94728.22
2022-07-29T05:36:24.113Z,94716.84
2022-07-29T05:38:51.959Z,94724.09
2022-07-29T05:41:18.895Z,94726.94
2022-07-29T05:43:45.567Z,94725.31
2022-07-29T05:46:12.300Z,94731.13
2022-07-29T05:48:40.052Z,94737.28
2022-07-29T05:51:06.885Z,94729.97
2022-07-29T05:53:34.970Z,94729.50
2022-07-29T05:56:05.126Z,94730.75
2022-07-29T05:58:32.013Z,94736.59
2022-07-29T06:01:01.623Z,94735.47
2022-07-29T06:03:28.629Z,94739.06
2022-07-29T06:05:55.330Z,94739.34
2022-07-29T06:08:22.067Z,94740.41
2022-07-29T06:10:50.101Z,94747.16
2022-07-29T06:13:17.025Z,94747.78
2022-07-29T06:15:44.003Z,94749.47
2022-07-29T06:18:11.653Z,94742.47
2022-07-29T06:20:38.343Z,94747.50
2022-07-29T06:23:05.501Z,94751.38
2022-07-29T06:25:35.652Z,94757.00
2022-07-29T06:28:04.187Z,94751.44
2022-07-29T06:30:30.978Z,94754.72
2022-07-29T06:32:57.791Z,94754.72
2022-07-29T06:35:38.868Z,94753.75
2022-07-29T06:38:25.638Z,94761.53
2022-07-29T06:41:00.962Z,94758.56
2022-07-29T06:43:32.466Z,94757.50
2022-07-29T06:46:04.391Z,94764.06
2022-07-29T06:48:31.584Z,94767.66
2022-07-29T06:50:58.482Z,94765.22
2022-07-29T06:53:25.187Z,94764.59
2022-07-29T06:55:52.237Z,94770.66
2022-07-29T06:58:21.298Z,94769.53
2022-07-29T07:01:01.722Z,94777.88
2022-07-29T07:03:28.459Z,94777.53
2022-07-29T07:05:56.305Z,94778.22
2022-07-29T07:08:24.562Z,94766.22
2022-07-29T07:10:51.276Z,94769.50
2022-07-29T07:13:24.211Z,94774.84
2022-07-29T07:15:52.360Z,94778.78
2022-07-29T07:18:20.434Z,94777.63
2022-07-29T07:20:47.242Z,94777.63
2022-07-29T07:23:13.982Z,94772.09
2022-07-29T07:25:40.755Z,94766.91
2022-07-29T07:28:07.470Z,94774.78
2022-07-29T07:30:34.147Z,94768.88
2022-07-29T07:33:01.221Z,94770.19
2022-07-29T07:35:29.655Z,94778.59
2022-07-29T07:37:56.876Z,94773.16
2022-07-29T07:40:24.125Z,94774.16
2022-07-29T07:42:50.918Z,94774.84
2022-07-29T07:45:18.100Z,94774.53
2022-07-29T07:47:44.786Z,94766.09
2022-07-29T07:50:18.431Z,94769.75
2022-07-29T07:52:51.994Z,94768.94
2022-07-29T07:55:19.136Z,94769.38
2022-07-29T07:57:45.890Z,94772.53
2022-07-29T08:00:13.944Z,94761.00
2022-07-29T08:02:41.381Z,94765.03
2022-07-29T08:05:12.609Z,94767.38
2022-07-29T08:07:39.841Z,94780.88
2022-07-29T08:10:08.805Z,94784.00
2022-07-29T08:12:35.478Z,94783.22
2022-07-29T08:15:02.178Z,94782.88
2022-07-29T08:17:29.299Z,94777.91
2022-07-29T08:19:55.997Z,94774.66
2022-07-29T08:22:22.696Z,94776.50
2022-07-29T08:24:56.930Z,94784.59
2022-07-29T08:27:43.451Z,94781.84
2022-07-29T08:30:11.584Z,94791.47
2022-07-29T08:32:55.148Z,94784.75
2022-07-29T08:35:23.863Z,94788.59
2022-07-29T08:37:51.500Z,94789.75
2022-07-29T08:40:18.435Z,94793.03
2022-07-29T08:42:46.464Z,94793.38
2022-07-29T08:45:13.601Z,94795.06
2022-07-29T08:47:40.891Z,94803.84
2022-07-29T08:50:08.882Z,94802.44
2022-07-29T08:52:38.588Z,94803.88
2022-07-29T08:55:06.512Z,94796.78
2022-07-29T08:57:34.186Z,94803.66
2022-07-29T09:00:11.321Z,94802.28
2022-07-29T09:02:42.564Z,94800.28
2022-07-29T09:05:09.709Z,94799.50
2022-07-29T09:07:36.565Z,94802.66
2022-07-29T09:10:05.473Z,94794.16
2022-07-29T09:12:37.606Z,94809.56
2022-07-29T09:15:07.323Z,94797.16
2022-07-29T09:17:44.878Z,94799.28
2022-07-29T09:20:13.606Z,94802.56
2022-07-29T09:22:42.217Z,94801.66
2022-07-29T09:25:09.840Z,94801.50
2022-07-29T09:27:51.313Z,94796.22
2022-07-29T09:30:31.428Z,94792.41
2022-07-29T09:33:02.433Z,94791.28
2022-07-29T09:35:30.665Z,94793.25
2022-07-29T09:37:58.106Z,94792.53
2022-07-29T09:40:26.721Z,94794.53
2022-07-29T09:42:56.516Z,94789.53
2022-07-29T09:45:32.718Z,94789.09
2022-07-29T09:48:01.484Z,94789.13
2022-07-29T09:50:40.102Z,94786.00
2022-07-29T09:53:07.113Z,94789.16
2022-07-29T09:55:33.806Z,94781.00
2022-07-29T09:58:17.009Z,94776.78
2022-07-29T10:00:46.215Z,94785.28
2022-07-29T10:03:13.538Z,94780.84
2022-07-29T10:05:41.345Z,94782.84
2022-07-29T10:08:09.125Z,94779.91
2022-07-29T10:10:38.086Z,94779.88
2022-07-29T10:13:11.004Z,94776.66
2022-07-29T10:15:45.255Z,94774.41
2022-07-29T10:18:15.016Z,94774.13
2022-07-29T10:20:43.190Z,94774.28
2022-07-29T10:23:10.315Z,94771.03
2022-07-29T10:25:37.206Z,94767.28
2022-07-29T10:28:06.371Z,94771.13
2022-07-29T10:30:33.454Z,94765.66
2022-07-29T10:33:34.210Z,94772.44
2022-07-29T10:36:16.464Z,94760.59
2022-07-29T10:38:54.138Z,94768.84
2022-07-29T10:41:44.300Z,94765.59
2022-07-29T10:44:19.501Z,94763.84
2022-07-29T10:46:50.223Z,94771.03
2022-07-29T10:49:19.582Z,94779.41
2022-07-29T10:52:00.826Z,94788.56
2022-07-29T10:54:45.988Z,94779.13
2022-07-29T11:00:30.110Z,94782.09
2022-07-29T11:02:59.422Z,94780.69
2022-07-29T11:05:32.101Z,94777.50
2022-07-29T11:08:26.153Z,94774.97
2022-07-29T11:11:32.479Z,94778.25
2022-07-29T11:14:00.340Z,94771.56
2022-07-29T11:16:27.066Z,94763.06
2022-07-29T11:19:26.675Z,94763.06
2022-07-29T11:21:58.830Z,94753.63
2022-07-29T11:24:29.999Z,94755.13
2022-07-29T11:27:08.895Z,94760.34
2022-07-29T11:29:39.813Z,94768.06
2022-07-29T11:32:15.798Z,94757.38
2022-07-29T11:34:45.449Z,94756.00
2022-07-29T11:37:20.094Z,94755.06
2022-07-29T11:40:20.091Z,94745.25
2022-07-29T11:42:50.231Z,94751.56
2022-07-29T11:45:43.524Z,94749.25
2022-07-29T11:48:32.182Z,94750.13
2022-07-29T11:51:00.379Z,94749.06
2022-07-29T11:53:28.753Z,94743.31
2022-07-29T11:56:00.457Z,94742.97
2022-07-29T11:58:29.391Z,94734.88
2022-07-29T12:00:57.707Z,94734.75
2022-07-29T12:03:35.017Z,94733.56
2022-07-29T12:06:04.008Z,94735.63
2022-07-29T12:08:41.673Z,94738.34
2022-07-29T12:11:16.404Z,94735.13
2022-07-29T12:13:43.027Z,94731.88
2022-07-29T12:16:09.700Z,94716.59
2022-07-29T12:18:41.408Z,94740.84
2022-07-29T12:21:09.243Z,94736.03
2022-07-29T12:23:53.525Z,94743.34
2022-07-29T12:26:22.104Z,94736.25
2022-07-29T12:28:52.547Z,94751.34
2022-07-29T12:31:41.946Z,94745.16
2022-07-29T12:34:08.178Z,94743.09
2022-07-29T12:36:37.285Z,94751.66
2022-07-29T12:39:05.470Z,94744.69
2022-07-29T12:41:32.571Z,94734.28
2022-07-29T12:43:59.213Z,94743.22
2022-07-29T12:46:25.928Z,94739.28
2022-07-29T12:48:58.229Z,94736.09
2022-07-29T12:51:36.981Z,94736.09
2022-07-29T12:54:08.047Z,94729.47
2022-07-29T12:56:43.539Z,94724.84
2022-07-29T12:59:16.171Z,94734.19
2022-07-29T13:01:43.268Z,94733.78
2022-07-29T13:04:09.933Z,94731.44
2022-07-29T13:06:39.300Z,94733.84
2022-07-29T13:09:11.899Z,94726.56
2022-07-29T13:11:46.531Z,94727.38
2022-07-29T13:14:31.737Z,94716.59
2022-07-29T13:17:04.965Z,94713.66
2022-07-29T13:19:41.214Z,94711.88
2022-07-29T13:22:11.959Z,94709.16
2022-07-29T13:24:51.256Z,94708.38
2022-07-29T13:27:18.626Z,94715.00
2022-07-29T13:29:45.568Z,94708.44
2022-07-29T13:32:13.242Z,94702.31
2022-07-29T13:34:40.818Z,94711.28
2022-07-29T13:37:10.041Z,94701.53
2022-07-29T13:39:38.386Z,94716.94
2022-07-29T13:42:10.944Z,94702.06
2022-07-29T13:44:38.063Z,94700.53
2022-07-29T13:47:04.911Z,94704.84
2022-07-29T13:49:31.573Z,94702.06
2022-07-29T13:51:58.636Z,94696.16
2022-07-29T13:54:25.554Z,94694.47
2022-07-29T13:56:54.023Z,94693.16
2022-07-29T13:59:22.020Z,94684.53
2022-07-29T14:01:48.941Z,94685.63
2022-07-29T14:04:16.346Z,94683.16
2022-07-29T14:06:43.326Z,94685.06
2022-07-29T14:09:10.435Z,94680.84
2022-07-29T14:11:39.284Z,94683.75
2022-07-29T14:14:05.969Z,94685.47
2022-07-29T14:16:34.044Z,94693.66
2022-07-29T14:19:00.945Z,94688.63
2022-07-29T14:21:27.677Z,94691.69
2022-07-29T14:23:55.628Z,94694.34
2022-07-29T14:26:24.277Z,94693.91
2022-07-29T14:28:51.101Z,94699.59
2022-07-29T14:31:17.838Z,94696.34
2022-07-29T14:33:46.197Z,94697.28
2022-07-29T14:36:16.398Z,94702.50
2022-07-29T14:38:43.045Z,94705.50
2022-07-29T14:41:09.716Z,94710.81
2022-07-29T14:43:36.706Z,94710.00
2022-07-29T14:46:08.175Z,94711.22
2022-07-29T14:48:35.174Z,94713.03
2022-07-29T14:51:05.083Z,94714.81
2022-07-29T14:53:32.613Z,94722.06
2022-07-29T14:56:15.052Z,94730.09
2022-07-29T14:58:50.160Z,94730.00
2022-07-29T15:01:18.973Z,94740.03
2022-07-29T15:03:45.689Z,94740.00
2022-07-29T15:06:13.826Z,94742.28
2022-07-29T15:08:40.581Z,94742.59
2022-07-29T15:11:07.225Z,94741.03
2022-07-29T15:13:34.406Z,94742.53
2022-07-29T15:16:01.205Z,94742.06
2022-07-29T15:18:28.060Z,94750.84
2022-07-29T15:20:54.680Z,94744.50
2022-07-29T15:23:22.823Z,94749.88
2022-07-29T15:25:49.453Z,94747.50
2022-07-29T15:28:16.229Z,94757.94
2022-07-29T15:30:43.031Z,94752.53
2022-07-29T15:33:10.505Z,94762.16
2022-07-29T15:35:39.986Z,94771.41
2022-07-29T15:38:08.138Z,94769.81
2022-07-29T15:40:37.759Z,94781.69
2022-07-29T15:43:06.409Z,94782.31
2022-07-29T15:45:40.203Z,94788.41
2022-07-29T15:48:08.571Z,94789.03
2022-07-29T15:50:36.036Z,94788.53
2022-07-29T15:53:03.011Z,94787.59
2022-07-29T15:55:29.821Z,94784.34
2022-07-29T15:58:00.592Z,94792.59
2022-07-29T16:00:28.152Z,94793.59
2022-07-29T16:02:54.942Z,94807.69
2022-07-29T16:05:21.632Z,94819.81
2022-07-29T16:07:48.381Z,94825.03
2022-07-29T16:10:15.118Z,94845.03
2022-07-29T16:12:41.960Z,94847.13
2022-07-29T16:15:10.914Z,94863.56
2022-07-29T16:17:38.015Z,94853.03
2022-07-29T16:20:06.664Z,94850.75
2022-07-29T16:22:33.204Z,94857.31
2022-07-29T16:25:00.019Z,94861.84
2022-07-29T16:27:31.387Z,94858.47
2022-07-29T16:30:05.907Z,94863.63
2022-07-29T16:32:34.779Z,94873.16
2022-07-29T16:35:02.824Z,94871.56
2022-07-29T16:37:33.679Z,94874.28
2022-07-29T16:40:00.467Z,94875.94
2022-07-29T16:42:45.535Z,94872.22
2022-07-29T16:45:13.892Z,94877.53
2022-07-29T16:47:42.033Z,94874.16
2022-07-29T16:50:09.304Z,94883.13
2022-07-29T16:52:37.593Z,94878.38
2022-07-29T16:55:05.210Z,94874.13
2022-07-29T16:57:32.464Z,94882.59
2022-07-29T16:59:59.277Z,94883.41
2022-07-29T17:02:26.083Z,94882.47
2022-07-29T17:04:54.218Z,94882.28
2022-07-29T17:07:21.282Z,94877.09
2022-07-29T17:09:49.706Z,94874.00
2022-07-29T17:12:19.520Z,94872.16
2022-07-29T17:14:46.442Z,94874.84
2022-07-29T17:17:13.776Z,94884.78
2022-07-29T17:19:43.112Z,94893.47
2022-07-29T17:22:17.097Z,94904.81
2022-07-29T17:24:45.981Z,94939.00
2022-07-29T17:27:12.700Z,94940.25
2022-07-29T17:29:39.490Z,94935.97
2022-07-29T17:32:07.559Z,94935.50
2022-07-29T17:34:34.862Z,94940.72
2022-07-29T17:37:01.942Z,94941.31
2022-07-29T17:39:30.409Z,94942.25
2022-07-29T17:41:59.825Z,94952.03
2022-07-29T17:44:26.457Z,94953.13
2022-07-29T17:46:53.795Z,94950.00
2022-07-29T17:49:20.570Z,94951.88
2022-07-29T17:51:47.397Z,94952.34
2022-07-29T17:54:14.293Z,94952.03
2022-07-29T17:56:42.395Z,94952.50
2022-07-29T17:59:10.269Z,94955.31
2022-07-29T18:01:38.087Z,94961.50
2022-07-29T18:04:04.940Z,94963.41
2022-07-29T18:06:31.660Z,94967.34
2022-07-29T18:08:58.423Z,94972.84
2022-07-29T18:11:25.376Z,94975.53
2022-07-29T18:13:53.502Z,94980.28
2022-07-29T18:16:20.329Z,94979.47
2022-07-29T18:18:47.178Z,94988.53
2022-07-29T18:21:13.930Z,95000.47
2022-07-29T18:23:41.557Z,95002.25
2022-07-29T18:26:08.462Z,95007.41
2022-07-29T18:28:35.086Z,95003.94
2022-07-29T18:31:03.789Z,95011.06
2022-07-29T18:33:32.430Z,95008.72
2022-07-29T18:36:10.469Z,95003.97
2022-07-29T18:38:38.891Z,95003.25
2022-07-29T18:41:05.575Z,94999.28
2022-07-29T18:43:32.308Z,95001.38
2022-07-29T18:45:58.998Z,95002.78
2022-07-29T18:48:27.063Z,95006.75
2022-07-29T18:50:53.841Z,94994.88
2022-07-29T18:53:20.475Z,94996.00
2022-07-29T18:55:47.178Z,95000.25
2022-07-29T18:58:13.855Z,95010.53
2022-07-29T19:00:40.698Z,95008.00
2022-07-29T19:03:08.426Z,95007.66
2022-07-29T19:05:36.546Z,95003.06
2022-07-29T19:08:03.443Z,95009.69
2022-07-29T19:10:30.528Z,95003.06
2022-07-29T19:12:57.810Z,95013.16
2022-07-29T19:15:24.910Z,95008.59
2022-07-29T19:17:51.621Z,95015.38
2022-07-29T19:20:18.360Z,95018.22
2022-07-29T19:22:46.487Z,95017.28
2022-07-29T19:25:13.239Z,95019.31
2022-07-29T19:27:41.818Z,95018.69
2022-07-29T19:30:09.597Z,95021.84
2022-07-29T19:32:37.049Z,95026.78
2022-07-29T19:35:23.975Z,95024.88
2022-07-29T19:37:52.742Z,95018.72
2022-07-29T19:40:19.726Z,95018.09
2022-07-29T19:42:48.223Z,95025.81
2022-07-29T19:45:15.284Z,95021.38
2022-07-29T19:47:42.054Z,95021.22
2022-07-29T19:50:09.882Z,95020.25
2022-07-29T19:52:36.561Z,95020.88
2022-07-29T19:55:07.850Z,95017.22
2022-07-29T19:57:40.779Z,95017.41
2022-07-29T20:00:11.398Z,95030.50
2022-07-29T20:02:39.216Z,95027.66
2022-07-29T20:05:07.424Z,95017.22
2022-07-29T20:07:34.353Z,95019.75
2022-07-29T20:10:01.185Z,95028.88
2022-07-29T20:12:29.211Z,95025.91
2022-07-29T20:14:56.249Z,95023.53
2022-07-29T20:17:23.790Z,95026.53
2022-07-29T20:19:51.328Z,95030.16
2022-07-29T20:22:21.077Z,95031.13
2022-07-29T20:24:48.671Z,95027.19
2022-07-29T20:27:15.618Z,95024.34
2022-07-29T20:29:43.933Z,95024.53
2022-07-29T20:32:12.564Z,95026.59
2022-07-29T20:34:41.399Z,95022.63
2022-07-29T20:37:11.257Z,95020.25
2022-07-29T20:39:38.239Z,95022.94
2022-07-29T20:42:05.838Z,95016.44
2022-07-29T20:44:32.667Z,95023.56
2022-07-29T20:47:01.348Z,95017.56
2022-07-29T20:49:28.226Z,95024.63
2022-07-29T20:51:55.060Z,95014.88
2022-07-29T20:54:21.715Z,95018.19
2022-07-29T20:56:48.408Z,95020.72
2022-07-29T20:59:15.048Z,95015.81
2022-07-29T21:01:41.801Z,95020.25
2022-07-29T21:04:09.825Z,95019.91
2022-07-29T21:06:36.553Z,95012.16
2022-07-29T21:09:03.537Z,95022.22
2022-07-29T21:11:44.519Z,95015.94
2022-07-29T21:14:26.854Z,95014.94
2022-07-29T21:16:53.540Z,95017.13
2022-07-29T21:19:21.516Z,95016.81
2022-07-29T21:21:48.331Z,95012.53
2022-07-29T21:24:14.989Z,95013.16
2022-07-29T21:26:44.622Z,95013.75
2022-07-29T21:29:13.866Z,95015.78
2022-07-29T21:31:42.526Z,95008.06
2022-07-29T21:34:09.469Z,95011.84
2022-07-29T21:36:52.945Z,95014.66
2022-07-29T21:39:19.649Z,95006.69
2022-07-29T21:41:46.297Z,95008.41
2022-07-29T21:44:12.983Z,95000.50
2022-07-29T21:46:39.673Z,95003.47
2022-07-29T21:49:06.476Z,94998.13
2022-07-29T21:51:33.162Z,95004.88
2022-07-29T21:54:01.386Z,94996.38
2022-07-29T21:56:29.283Z,94998.88
2022-07-29T21:58:58.151Z,94993.66
2022-07-29T22:01:25.080Z,95001.22
2022-07-29T22:03:51.885Z,94993.50
2022-07-29T22:06:18.691Z,94992.59
2022-07-29T22:08:45.711Z,94979.69
2022-07-29T22:11:14.541Z,94988.22
2022-07-29T22:13:41.251Z,94978.78
2022-07-29T22:16:10.071Z,94981.75
2022-07-29T22:18:36.700Z,94973.22
2022-07-29T22:21:03.476Z,94978.59
2022-07-29T22:23:30.691Z,94974.81
2022-07-29T22:25:57.357Z,94974.00
2022-07-29T22:28:25.357Z,94973.72
2022-07-29T22:30:52.090Z,94966.47
2022-07-29T22:33:18.815Z,94967.88
2022-07-29T22:35:48.510Z,94963.63
2022-07-29T22:38:16.103Z,94962.84
2022-07-29T22:40:42.803Z,94957.47
2022-07-29T22:43:10.689Z,94954.47
2022-07-29T22:45:38.809Z,94959.81
2022-07-29T22:48:06.192Z,94958.69
2022-07-29T22:50:32.961Z,94952.06
2022-07-29T22:52:59.647Z,94955.72
2022-07-29T22:55:26.346Z,94958.06
2022-07-29T22:57:53.017Z,94956.66
2022-07-29T23:00:19.788Z,94950.69
2022-07-29T23:02:47.857Z,94954.16
2022-07-29T23:05:15.707Z,94963.47
2022-07-29T23:07:42.620Z,94951.53
2022-07-29T23:10:09.731Z,94948.69
2022-07-29T23:12:36.597Z,94950.56
2022-07-29T23:15:04.469Z,94944.88
2022-07-29T23:17:31.422Z,94943.81
2022-07-29T23:20:06.457Z,94949.63
2022-07-29T23:22:33.198Z,94942.06
2022-07-29T23:25:01.205Z,94939.38
2022-07-29T23:27:27.949Z,94933.53
2022-07-29T23:29:54.637Z,94928.38
2022-07-29T23:32:21.649Z,94929.78
2022-07-29T23:34:48.280Z,94930.41
2022-07-29T23:37:16.435Z,94930.41
2022-07-29T23:39:43.108Z,94917.78
2022-07-29T23:42:09.887Z,94919.84
2022-07-29T23:44:36.569Z,94920.63
2022-07-29T23:47:03.489Z,94935.13
2022-07-29T23:49:30.672Z,94936.22
2022-07-29T23:51:57.477Z,94928.19
2022-07-29T23:54:25.599Z,94920.28
2022-07-29T23:56:52.375Z,94932.25
2022-07-29T23:59:19.050Z,94931.47
